Wexford, Ireland
Current Conditions -  °F | °C
As of 9:30 PM on Friday 19 Dec 2014 (Local Time) from EIWF Reporting Station
Overcast Overcast  
Wind Chill: 39°   Ceiling: 2700
Heat Index: 45°   Visibility: 6mi
Dew Point: 39°   Wind: 10mph
Humidity: 81%   Direction: 250°WSW
Pressure: 30.24"   Gusts: NA
Location:  52.34°N, 6.48°W
Report Text: EIWF 192030Z 25009KT 200V300 9999 OVC027 07/04 Q1024
Loading
Personal Weather Stations






























Interactive Weather Map New forecast layout! Learn more

10-Day Weather Forecast

Advertisements
Track Severe Weather on mobile